Time;durP1;ratioP1;P1;durP2;ratioP2;P2;SDS_P1;SDS_P2;PMS_P1;PMS_P2;Temp;Humidity;BMP_temperature;BMP_pressure;BME280_temperature;BME280_humidity;BME280_pressure;Samples;Min_cycle;Max_cycle;Signal;HPM_P1;HPM_P2
2021/04/18 00:01:55;;;;;;;8.40;4.22;;;;;;;;;;4973595;28;20498;-83
2021/04/18 00:04:22;;;;;;;7.65;4.03;;;;;;;;;;4973875;28;20050;-83
2021/04/18 00:06:48;;;;;;;7.75;4.60;;;;;;;;;;4973533;28;20490;-83
2021/04/18 00:09:14;;;;;;;8.85;4.82;;;;;;;;;;4972436;28;20089;-83
2021/04/18 00:11:41;;;;;;;10.13;5.07;;;;;;;;;;4956432;28;20035;-83
2021/04/18 00:14:07;;;;;;;6.13;3.72;;;;;;;;;;4972227;28;20042;-83
2021/04/18 00:16:36;;;;;;;9.55;4.43;;;;;;;;;;4955902;28;20519;-82
2021/04/18 00:19:03;;;;;;;7.85;4.40;;;;;;;;;;4972305;28;20035;-83
2021/04/18 00:21:29;;;;;;;11.13;5.28;;;;;;;;;;4972312;28;20122;-82
2021/04/18 00:23:55;;;;;;;8.15;3.92;;;;;;;;;;4972380;28;20038;-83
2021/04/18 00:26:21;;;;;;;8.38;4.20;;;;;;;;;;4956454;28;20046;-83
2021/04/18 00:28:47;;;;;;;5.70;3.60;;;;;;;;;;4972030;28;20042;-83
2021/04/18 00:31:13;;;;;;;8.32;3.83;;;;;;;;;;4973330;28;20174;-83
2021/04/18 00:33:39;;;;;;;6.07;3.95;;;;;;;;;;4972143;28;20511;-83
2021/04/18 00:36:05;;;;;;;7.47;4.20;;;;;;;;;;4972078;28;20038;-83
2021/04/18 00:38:31;;;;;;;6.60;3.75;;;;;;;;;;4956080;28;20066;-83
2021/04/18 00:40:57;;;;;;;5.40;4.03;;;;;;;;;;4973395;28;20035;-83
2021/04/18 00:43:23;;;;;;;5.07;3.80;;;;;;;;;;4956189;28;20043;-83
2021/04/18 00:45:49;;;;;;;4.18;3.15;;;;;;;;;;4973161;28;20039;-82
2021/04/18 00:48:15;;;;;;;5.40;3.38;;;;;;;;;;4972065;28;20126;-83
2021/04/18 00:50:41;;;;;;;5.53;3.60;;;;;;;;;;4971961;28;20046;-83
2021/04/18 00:53:08;;;;;;;6.35;4.07;;;;;;;;;;4973084;28;20065;-83
2021/04/18 00:55:38;;;;;;;9.18;3.95;;;;;;;;;;4972682;28;20577;-83
2021/04/18 00:58:05;;;;;;;6.75;4.00;;;;;;;;;;4975735;28;20035;-83
2021/04/18 01:00:31;;;;;;;6.90;3.67;;;;;;;;;;4959532;28;20089;-83
2021/04/18 01:02:57;;;;;;;6.47;4.00;;;;;;;;;;4976861;28;20121;-83
2021/04/18 01:05:24;;;;;;;9.27;4.60;;;;;;;;;;4975818;28;20043;-82
2021/04/18 01:07:50;;;;;;;8.00;5.20;;;;;;;;;;4975768;28;20042;-83
2021/04/18 01:10:17;;;;;;;9.27;4.75;;;;;;;;;;4959542;28;20039;-83
2021/04/18 01:12:43;;;;;;;8.80;4.43;;;;;;;;;;4975513;28;20513;-83
2021/04/18 01:15:10;;;;;;;10.32;5.20;;;;;;;;;;4959516;28;20039;-83
2021/04/18 01:17:36;;;;;;;13.63;4.97;;;;;;;;;;4959218;28;20126;-83
2021/04/18 01:20:03;;;;;;;10.75;5.35;;;;;;;;;;4976625;28;20494;-83
2021/04/18 01:22:29;;;;;;;13.35;6.80;;;;;;;;;;4959369;28;20039;-82
2021/04/18 01:24:55;;;;;;;15.88;6.30;;;;;;;;;;4976457;28;20451;-82
2021/04/18 01:27:23;;;;;;;13.82;6.10;;;;;;;;;;4975446;28;20062;-82
2021/04/18 01:29:49;;;;;;;17.05;5.80;;;;;;;;;;4974997;28;20055;-82
2021/04/18 01:32:15;;;;;;;23.88;5.93;;;;;;;;;;4975281;28;20486;-82
2021/04/18 01:34:42;;;;;;;11.93;5.28;;;;;;;;;;4976234;28;20047;-82
2021/04/18 01:37:08;;;;;;;20.75;5.45;;;;;;;;;;4975071;28;20041;-83
2021/04/18 01:39:35;;;;;;;29.10;5.60;;;;;;;;;;4958921;28;20039;-82
2021/04/18 01:42:01;;;;;;;18.60;5.25;;;;;;;;;;4975102;28;20045;-83
2021/04/18 01:44:27;;;;;;;26.10;5.53;;;;;;;;;;4976180;28;20043;-83
2021/04/18 01:46:53;;;;;;;16.73;5.03;;;;;;;;;;4976170;28;20078;-82
2021/04/18 01:49:19;;;;;;;9.60;5.10;;;;;;;;;;4974958;28;20099;-83
2021/04/18 01:51:45;;;;;;;17.85;5.30;;;;;;;;;;4975136;28;20046;-83
2021/04/18 01:54:12;;;;;;;13.40;5.32;;;;;;;;;;4975801;28;20078;-83
2021/04/18 01:56:38;;;;;;;10.95;5.45;;;;;;;;;;4974762;28;20031;-83
2021/04/18 01:59:04;;;;;;;7.95;5.20;;;;;;;;;;4974829;28;20093;-83
2021/04/18 02:01:30;;;;;;;9.00;5.03;;;;;;;;;;4974777;28;20039;-83
2021/04/18 02:03:56;;;;;;;10.05;5.30;;;;;;;;;;4974883;28;20058;-83
2021/04/18 02:06:23;;;;;;;11.95;5.90;;;;;;;;;;4974262;28;20050;-83
2021/04/18 02:08:49;;;;;;;10.68;5.25;;;;;;;;;;4974473;28;20149;-83
2021/04/18 02:11:15;;;;;;;8.38;5.22;;;;;;;;;;4974565;28;20500;-83
2021/04/18 02:13:41;;;;;;;9.52;5.35;;;;;;;;;;4974503;28;20133;-83
2021/04/18 02:16:08;;;;;;;6.57;4.95;;;;;;;;;;4974319;28;20141;-83
2021/04/18 02:18:34;;;;;;;9.38;5.55;;;;;;;;;;4958457;28;20060;-83
2021/04/18 02:21:00;;;;;;;12.13;5.85;;;;;;;;;;4974390;28;20039;-83
2021/04/18 02:23:27;;;;;;;7.10;5.20;;;;;;;;;;4974444;28;20125;-83
2021/04/18 02:25:53;;;;;;;10.45;5.60;;;;;;;;;;4958193;28;20034;-84
2021/04/18 02:28:19;;;;;;;8.55;5.60;;;;;;;;;;4974047;28;20125;-84
2021/04/18 02:30:45;;;;;;;9.93;5.50;;;;;;;;;;4942182;28;20383;-83
2021/04/18 02:33:11;;;;;;;8.32;5.40;;;;;;;;;;4975237;28;20047;-83
2021/04/18 02:35:37;;;;;;;13.80;6.85;;;;;;;;;;4958077;28;20082;-83
2021/04/18 02:38:03;;;;;;;11.27;5.95;;;;;;;;;;4957983;28;20057;-83
2021/04/18 02:40:29;;;;;;;14.68;7.03;;;;;;;;;;4975125;28;20050;-83
2021/04/18 02:42:55;;;;;;;10.63;5.93;;;;;;;;;;4942065;28;20050;-83
2021/04/18 02:45:21;;;;;;;12.40;5.90;;;;;;;;;;4975163;28;20442;-83
2021/04/18 02:47:47;;;;;;;10.48;5.97;;;;;;;;;;4974935;28;20494;-83
2021/04/18 02:50:13;;;;;;;8.75;5.63;;;;;;;;;;4957604;28;20043;-83
2021/04/18 02:52:39;;;;;;;9.88;6.18;;;;;;;;;;4957640;28;20043;-83
2021/04/18 02:55:06;;;;;;;9.18;5.57;;;;;;;;;;4957728;28;20118;-82
2021/04/18 02:57:32;;;;;;;7.90;5.30;;;;;;;;;;4957612;28;20054;-83
2021/04/18 02:59:58;;;;;;;8.00;5.40;;;;;;;;;;4957860;28;20045;-82
2021/04/18 03:02:25;;;;;;;9.18;5.85;;;;;;;;;;4957830;28;20034;-82
2021/04/18 03:04:52;;;;;;;9.07;5.95;;;;;;;;;;4957504;28;20547;-82
2021/04/18 03:07:20;;;;;;;11.02;5.97;;;;;;;;;;4941883;28;20039;-83
2021/04/18 03:09:46;;;;;;;8.25;5.82;;;;;;;;;;4974664;28;20067;-83
2021/04/18 03:12:12;;;;;;;9.90;6.30;;;;;;;;;;4941448;28;20073;-83
2021/04/18 03:14:38;;;;;;;10.35;6.28;;;;;;;;;;4974476;28;20042;-83
2021/04/18 03:17:04;;;;;;;11.15;6.88;;;;;;;;;;4974391;28;20415;-83
2021/04/18 03:19:30;;;;;;;10.88;6.53;;;;;;;;;;4956451;28;20506;-82
2021/04/18 03:21:56;;;;;;;9.48;6.07;;;;;;;;;;4957347;28;20039;-83
2021/04/18 03:24:22;;;;;;;11.27;6.53;;;;;;;;;;4957140;28;20096;-83
2021/04/18 03:26:50;;;;;;;11.13;6.40;;;;;;;;;;4956934;28;20038;-84
2021/04/18 03:29:16;;;;;;;11.13;5.78;;;;;;;;;;4962278;28;20051;-83
2021/04/18 03:31:42;;;;;;;9.60;6.35;;;;;;;;;;4973039;28;20054;-83
2021/04/18 03:34:08;;;;;;;10.60;6.85;;;;;;;;;;4972834;28;20034;-83
2021/04/18 03:36:34;;;;;;;14.07;6.15;;;;;;;;;;4957029;28;20047;-83
2021/04/18 03:39:00;;;;;;;14.70;6.13;;;;;;;;;;4972916;28;20093;-83
2021/04/18 03:41:26;;;;;;;13.52;6.88;;;;;;;;;;4974273;28;20038;-83
2021/04/18 03:43:52;;;;;;;10.45;6.22;;;;;;;;;;4972843;28;20046;-83
2021/04/18 03:46:18;;;;;;;11.40;6.18;;;;;;;;;;4972607;28;20486;-82
2021/04/18 03:48:44;;;;;;;11.80;6.13;;;;;;;;;;4956635;28;20042;-85
2021/04/18 03:51:10;;;;;;;29.73;8.10;;;;;;;;;;4972811;28;20089;-85
2021/04/18 03:53:36;;;;;;;45.72;8.70;;;;;;;;;;4956619;28;20375;-84
2021/04/18 03:56:03;;;;;;;24.30;8.10;;;;;;;;;;4956578;28;20034;-82
2021/04/18 03:58:29;;;;;;;41.15;9.68;;;;;;;;;;4974293;28;20046;-81
2021/04/18 04:00:55;;;;;;;55.78;10.20;;;;;;;;;;4972586;28;20101;-82
2021/04/18 04:03:21;;;;;;;52.63;11.32;;;;;;;;;;4972508;28;20039;-82
2021/04/18 04:05:47;;;;;;;60.92;9.30;;;;;;;;;;4973608;28;20122;-81
2021/04/18 04:08:14;;;;;;;40.55;9.43;;;;;;;;;;4973633;28;20416;-82
2021/04/18 04:10:40;;;;;;;32.08;7.38;;;;;;;;;;4972463;28;20479;-82
2021/04/18 04:13:06;;;;;;;21.25;7.13;;;;;;;;;;4973474;28;20074;-82
2021/04/18 04:15:32;;;;;;;21.00;7.20;;;;;;;;;;4972338;28;20073;-83
2021/04/18 04:17:58;;;;;;;66.57;10.90;;;;;;;;;;4973413;28;20049;-82
2021/04/18 04:20:24;;;;;;;53.85;8.90;;;;;;;;;;4972284;28;20043;-82
2021/04/18 04:22:50;;;;;;;41.65;7.28;;;;;;;;;;4972310;28;20106;-82
2021/04/18 04:25:16;;;;;;;22.35;8.20;;;;;;;;;;4972268;28;20475;-83
2021/04/18 04:27:42;;;;;;;39.72;8.45;;;;;;;;;;4972218;28;20133;-83
2021/04/18 04:30:08;;;;;;;20.80;7.30;;;;;;;;;;4971933;28;20114;-83
2021/04/18 04:32:35;;;;;;;15.30;7.50;;;;;;;;;;4973173;28;20043;-82
2021/04/18 04:35:01;;;;;;;16.50;7.00;;;;;;;;;;4956339;28;20490;-83
2021/04/18 04:37:27;;;;;;;13.20;8.00;;;;;;;;;;4972052;28;20039;-82
2021/04/18 04:39:53;;;;;;;10.65;6.60;;;;;;;;;;4972220;28;20077;-82
2021/04/18 04:42:19;;;;;;;12.05;6.55;;;;;;;;;;4973276;28;20038;-82
2021/04/18 04:44:45;;;;;;;10.52;6.55;;;;;;;;;;4973214;28;20047;-82
2021/04/18 04:47:11;;;;;;;13.85;7.20;;;;;;;;;;4973070;28;20074;-83
2021/04/18 04:49:37;;;;;;;8.75;6.35;;;;;;;;;;4972152;28;20062;-83
2021/04/18 04:52:03;;;;;;;9.02;6.93;;;;;;;;;;4972110;28;20077;-83
2021/04/18 04:54:29;;;;;;;9.68;6.03;;;;;;;;;;4972113;28;20047;-82
2021/04/18 04:56:55;;;;;;;10.32;6.30;;;;;;;;;;4973063;28;20094;-83
2021/04/18 04:59:21;;;;;;;10.35;7.00;;;;;;;;;;4971987;28;20472;-82
2021/04/18 05:01:47;;;;;;;10.25;6.38;;;;;;;;;;4973030;28;20059;-82
2021/04/18 05:04:13;;;;;;;6.85;5.78;;;;;;;;;;4971790;28;20133;-82
2021/04/18 05:06:39;;;;;;;9.93;5.90;;;;;;;;;;4972998;28;20079;-83
2021/04/18 05:09:07;;;;;;;11.55;7.15;;;;;;;;;;4973015;28;20093;-81
2021/04/18 05:11:33;;;;;;;12.52;6.82;;;;;;;;;;4971868;28;20034;-83
2021/04/18 05:13:59;;;;;;;9.88;6.45;;;;;;;;;;4971783;28;20046;-83
2021/04/18 05:16:25;;;;;;;10.50;6.43;;;;;;;;;;4972914;28;20077;-83
2021/04/18 05:18:51;;;;;;;12.85;7.22;;;;;;;;;;4955977;28;20133;-82
2021/04/18 05:21:17;;;;;;;10.35;6.90;;;;;;;;;;4971794;28;20482;-83
2021/04/18 05:23:43;;;;;;;9.13;6.47;;;;;;;;;;4972890;28;20050;-83
2021/04/18 05:26:09;;;;;;;9.05;6.07;;;;;;;;;;4971707;28;20447;-81
2021/04/18 05:28:35;;;;;;;9.30;6.53;;;;;;;;;;4971509;28;20065;-81
2021/04/18 05:31:01;;;;;;;8.88;6.88;;;;;;;;;;4955927;28;20073;-82
2021/04/18 05:33:27;;;;;;;10.32;6.80;;;;;;;;;;4955673;28;20317;-83
2021/04/18 05:35:53;;;;;;;8.85;6.65;;;;;;;;;;4955697;28;20166;-87
2021/04/18 05:38:19;;;;;;;7.28;6.18;;;;;;;;;;4955668;28;20046;-82
2021/04/18 05:40:46;;;;;;;11.20;6.85;;;;;;;;;;4939942;28;20379;-83
2021/04/18 05:43:12;;;;;;;10.60;7.05;;;;;;;;;;4975557;28;20478;-80
2021/04/18 05:45:38;;;;;;;8.77;6.63;;;;;;;;;;4976251;28;20043;-81
2021/04/18 05:48:04;;;;;;;9.00;6.80;;;;;;;;;;4976176;28;20046;-81
2021/04/18 05:50:30;;;;;;;11.52;7.43;;;;;;;;;;4976169;28;20129;-82
2021/04/18 05:52:56;;;;;;;6.95;5.80;;;;;;;;;;4975928;28;20042;-82
2021/04/18 05:55:22;;;;;;;7.68;6.25;;;;;;;;;;4958947;28;20057;-81
2021/04/18 05:57:48;;;;;;;10.52;6.60;;;;;;;;;;4975777;28;20046;-82
2021/04/18 06:00:15;;;;;;;8.00;6.47;;;;;;;;;;4975924;28;20045;-83
2021/04/18 06:02:41;;;;;;;6.32;5.15;;;;;;;;;;4975856;28;20170;-81
2021/04/18 06:05:07;;;;;;;9.88;6.50;;;;;;;;;;4958811;28;20118;-82
2021/04/18 06:07:33;;;;;;;7.18;5.95;;;;;;;;;;4975831;28;20039;-82
2021/04/18 06:10:01;;;;;;;8.65;5.97;;;;;;;;;;4975681;28;20039;-83
2021/04/18 06:12:27;;;;;;;9.00;6.60;;;;;;;;;;4958460;28;20045;-82
2021/04/18 06:14:53;;;;;;;8.90;6.07;;;;;;;;;;4958350;28;20110;-85
2021/04/18 06:17:19;;;;;;;9.93;6.70;;;;;;;;;;4958411;28;20042;-85
2021/04/18 06:19:45;;;;;;;8.65;6.63;;;;;;;;;;4942440;28;20162;-84
2021/04/18 06:22:11;;;;;;;8.68;6.63;;;;;;;;;;4958374;28;20528;-84
2021/04/18 06:24:37;;;;;;;6.63;5.43;;;;;;;;;;4942291;28;20105;-84
2021/04/18 06:27:03;;;;;;;8.25;5.90;;;;;;;;;;4940600;28;20047;-91
2021/04/18 06:29:29;;;;;;;7.78;5.75;;;;;;;;;;4960072;28;20134;-85
2021/04/18 06:31:55;;;;;;;9.82;6.78;;;;;;;;;;4974887;28;20077;-84
2021/04/18 06:34:23;;;;;;;11.02;6.85;;;;;;;;;;4971611;28;20034;-85
2021/04/18 06:36:50;;;;;;;11.48;7.22;;;;;;;;;;4957816;28;20062;-85
2021/04/18 06:39:16;;;;;;;8.43;6.47;;;;;;;;;;4974657;28;20494;-85
2021/04/18 06:41:42;;;;;;;11.55;7.40;;;;;;;;;;4973758;28;20065;-85
2021/04/18 06:44:08;;;;;;;8.48;6.47;;;;;;;;;;4973886;28;20101;-85
2021/04/18 06:46:34;;;;;;;9.57;6.53;;;;;;;;;;4975026;28;20490;-85
2021/04/18 06:49:00;;;;;;;9.50;7.10;;;;;;;;;;4973716;28;20130;-85
2021/04/18 06:51:26;;;;;;;13.70;7.75;;;;;;;;;;4973753;28;20121;-84
2021/04/18 06:53:52;;;;;;;12.35;8.00;;;;;;;;;;4972383;28;20035;-85
2021/04/18 06:56:18;;;;;;;13.27;8.20;;;;;;;;;;4973346;28;20053;-85
2021/04/18 06:58:44;;;;;;;12.10;8.10;;;;;;;;;;4974080;28;20066;-82
2021/04/18 07:01:10;;;;;;;13.60;8.70;;;;;;;;;;4973487;28;20038;-82
2021/04/18 07:03:38;;;;;;;14.73;8.40;;;;;;;;;;4973686;28;20048;-84
2021/04/18 07:06:04;;;;;;;13.07;7.55;;;;;;;;;;4973565;28;20144;-85
2021/04/18 07:08:30;;;;;;;14.38;8.45;;;;;;;;;;4973736;28;20035;-83
2021/04/18 07:11:18;;;;;;;11.07;7.75;;;;;;;;;;4969521;28;20092;-83
2021/04/18 07:13:45;;;;;;;11.30;7.05;;;;;;;;;;4972940;28;20039;-82
2021/04/18 07:16:32;;;;;;;10.30;7.50;;;;;;;;;;4973217;28;20041;-82
2021/04/18 07:18:59;;;;;;;12.40;6.93;;;;;;;;;;4974372;28;20038;-83
2021/04/18 07:21:25;;;;;;;12.27;7.28;;;;;;;;;;4972800;28;20494;-83
2021/04/18 07:23:51;;;;;;;12.88;7.20;;;;;;;;;;4973236;28;20046;-86
2021/04/18 07:26:25;;;;;;;12.60;7.78;;;;;;;;;;4956981;28;20039;-84
2021/04/18 07:28:51;;;;;;;10.10;7.10;;;;;;;;;;4974119;28;20131;-84
2021/04/18 07:31:31;;;;;;;15.50;6.95;;;;;;;;;;4956751;28;20035;-85
2021/04/18 07:34:04;;;;;;;13.93;6.88;;;;;;;;;;4940892;28;20051;-84
2021/04/18 07:36:31;;;;;;;12.43;6.70;;;;;;;;;;4956992;28;20126;-84
2021/04/18 07:38:57;;;;;;;14.68;7.55;;;;;;;;;;4940486;28;20034;-86
2021/04/18 07:41:23;;;;;;;10.95;7.13;;;;;;;;;;4956797;28;20041;-86
2021/04/18 07:43:49;;;;;;;10.88;6.90;;;;;;;;;;4956890;28;20081;-84
2021/04/18 07:46:15;;;;;;;10.73;6.60;;;;;;;;;;4956584;28;20143;-85
2021/04/18 07:48:42;;;;;;;10.48;6.60;;;;;;;;;;4940840;28;20039;-85
2021/04/18 07:51:08;;;;;;;9.63;6.47;;;;;;;;;;4956896;28;20066;-86
2021/04/18 07:53:35;;;;;;;11.32;7.05;;;;;;;;;;4940631;28;20074;-84
2021/04/18 07:56:01;;;;;;;11.07;6.88;;;;;;;;;;4973745;28;20429;-84
2021/04/18 07:58:27;;;;;;;11.38;6.63;;;;;;;;;;4956333;28;20073;-84
2021/04/18 08:00:53;;;;;;;12.13;6.13;;;;;;;;;;4956351;28;20122;-83
2021/04/18 08:03:19;;;;;;;13.80;6.95;;;;;;;;;;4935028;28;20039;-84
2021/04/18 08:05:45;;;;;;;13.30;6.82;;;;;;;;;;4936647;29;20043;-84
2021/04/18 08:08:14;;;;;;;8.93;6.43;;;;;;;;;;4953044;29;20260;-83
2021/04/18 08:10:41;;;;;;;9.68;6.28;;;;;;;;;;4954116;28;20047;-84
2021/04/18 08:13:09;;;;;;;9.57;6.13;;;;;;;;;;4951883;28;20110;-84
2021/04/18 08:15:36;;;;;;;12.00;6.55;;;;;;;;;;4954221;28;20054;-85
2021/04/18 08:18:09;;;;;;;8.00;5.95;;;;;;;;;;4953951;28;20039;-85
2021/04/18 08:20:39;;;;;;;12.20;6.57;;;;;;;;;;4936881;29;20455;-85
2021/04/18 08:23:09;;;;;;;8.80;6.40;;;;;;;;;;4937221;29;20102;-84
2021/04/18 08:25:36;;;;;;;9.45;6.22;;;;;;;;;;4936973;29;20039;-85
2021/04/18 08:28:03;;;;;;;41.65;9.25;;;;;;;;;;4936894;29;20042;-84
2021/04/18 08:30:30;;;;;;;10.18;6.68;;;;;;;;;;4936141;29;20078;-84
2021/04/18 08:32:56;;;;;;;10.48;6.85;;;;;;;;;;4953934;29;20451;-84
2021/04/18 08:35:23;;;;;;;10.50;6.22;;;;;;;;;;4936611;29;20448;-84
2021/04/18 08:38:28;;;;;;;11.93;7.68;;;;;;;;;;4953408;28;20403;-85
2021/04/18 08:41:03;;;;;;;12.40;7.95;;;;;;;;;;4932363;29;20050;-85
2021/04/18 08:43:29;;;;;;;11.70;7.25;;;;;;;;;;4897665;29;20075;-85
2021/04/18 08:45:55;;;;;;;11.85;7.50;;;;;;;;;;4910223;29;20057;-84
2021/04/18 08:48:21;;;;;;;11.07;7.18;;;;;;;;;;4953865;29;20035;-84
2021/04/18 08:50:58;;;;;;;12.20;7.13;;;;;;;;;;4952589;29;20070;-84
2021/04/18 08:53:26;;;;;;;13.23;7.88;;;;;;;;;;4952720;28;20051;-83
2021/04/18 08:56:01;;;;;;;10.80;7.10;;;;;;;;;;4952702;28;20483;-83
2021/04/18 08:58:30;;;;;;;12.38;7.53;;;;;;;;;;4952588;29;20122;-82
2021/04/18 09:01:04;;;;;;;11.57;7.30;;;;;;;;;;4953880;29;20420;-84
2021/04/18 09:03:30;;;;;;;11.98;7.85;;;;;;;;;;4952508;29;20100;-84
2021/04/18 09:06:10;;;;;;;11.10;7.47;;;;;;;;;;4953695;29;20554;-84
2021/04/18 09:08:49;;;;;;;12.35;7.30;;;;;;;;;;4952549;29;20047;-84
2021/04/18 09:11:15;;;;;;;8.95;6.65;;;;;;;;;;4953792;28;20529;-83
2021/04/18 09:13:53;;;;;;;10.77;6.53;;;;;;;;;;4953564;28;20102;-84
2021/04/18 09:16:23;;;;;;;10.13;7.55;;;;;;;;;;4961802;28;20396;-83
2021/04/18 09:18:49;;;;;;;11.88;7.07;;;;;;;;;;4956062;28;20067;-83
2021/04/18 09:21:15;;;;;;;11.50;7.47;;;;;;;;;;4972206;28;20556;-85
2021/04/18 09:23:57;;;;;;;9.63;6.90;;;;;;;;;;4972722;28;20047;-83
2021/04/18 09:26:23;;;;;;;12.23;6.97;;;;;;;;;;4972824;28;20446;-83
2021/04/18 09:29:05;;;;;;;9.85;6.30;;;;;;;;;;4974795;28;20521;-83
2021/04/18 09:31:31;;;;;;;8.55;5.82;;;;;;;;;;4943289;28;20332;-86
2021/04/18 09:34:02;;;;;;;10.00;5.50;;;;;;;;;;4959065;28;20363;-84
2021/04/18 09:36:28;;;;;;;12.18;6.72;;;;;;;;;;4958928;28;20113;-84
2021/04/18 09:38:54;;;;;;;10.23;6.43;;;;;;;;;;4942206;28;20490;-84
2021/04/18 09:41:20;;;;;;;8.80;6.53;;;;;;;;;;4959030;28;20077;-83
2021/04/18 09:43:46;;;;;;;45.83;8.48;;;;;;;;;;4975973;28;20122;-83
2021/04/18 09:46:12;;;;;;;16.92;6.55;;;;;;;;;;4959187;28;20486;-84
2021/04/18 09:48:38;;;;;;;15.68;6.93;;;;;;;;;;4976190;28;20042;-84
2021/04/18 09:51:06;;;;;;;14.73;6.85;;;;;;;;;;4975968;28;20050;-83
2021/04/18 09:53:32;;;;;;;38.60;9.38;;;;;;;;;;4958269;28;20457;-83
2021/04/18 09:56:03;;;;;;;115.85;16.55;;;;;;;;;;4958524;28;20038;-81
2021/04/18 09:58:36;;;;;;;14.25;6.75;;;;;;;;;;4958757;28;20038;-83
2021/04/18 10:01:02;;;;;;;14.55;7.63;;;;;;;;;;4975930;28;20035;-83
2021/04/18 10:03:35;;;;;;;31.08;8.48;;;;;;;;;;4942730;28;20050;-83
2021/04/18 10:06:00;;;;;;;;;;;;;;;;;;4976087;28;20121;-82
2021/04/18 10:08:27;;;;;;;10.20;6.75;;;;;;;;;;4975336;28;19960;-82
2021/04/18 10:10:58;;;;;;;9.45;6.05;;;;;;;;;;4975720;28;20042;-83
2021/04/18 10:13:39;;;;;;;9.48;5.38;;;;;;;;;;4958430;28;20050;-83
2021/04/18 10:16:06;;;;;;;8.50;6.32;;;;;;;;;;4975257;28;20046;-82
2021/04/18 10:18:33;;;;;;;7.55;5.57;;;;;;;;;;4937314;29;20047;-82
2021/04/18 10:21:18;;;;;;;11.20;6.47;;;;;;;;;;4939264;29;20058;-83
2021/04/18 10:23:44;;;;;;;9.13;5.93;;;;;;;;;;4956130;29;20055;-84
2021/04/18 10:26:10;;;;;;;7.35;5.43;;;;;;;;;;4970479;28;20118;-84
2021/04/18 10:28:36;;;;;;;7.03;4.80;;;;;;;;;;4974780;28;20043;-84
2021/04/18 10:31:02;;;;;;;7.20;4.82;;;;;;;;;;4958220;28;20039;-83
2021/04/18 10:33:28;;;;;;;7.25;4.65;;;;;;;;;;4958141;28;20038;-84
2021/04/18 10:35:58;;;;;;;6.68;5.05;;;;;;;;;;4958008;28;20039;-84
2021/04/18 10:38:24;;;;;;;6.85;4.50;;;;;;;;;;4958119;28;20495;-84
2021/04/18 10:40:50;;;;;;;7.55;4.38;;;;;;;;;;4941968;28;20043;-84
2021/04/18 10:43:16;;;;;;;8.20;4.57;;;;;;;;;;4952889;28;20039;-84
2021/04/18 10:45:42;;;;;;;6.95;4.88;;;;;;;;;;4971164;28;20066;-82
2021/04/18 10:48:08;;;;;;;6.85;4.95;;;;;;;;;;4966595;28;20491;-83
2021/04/18 10:50:34;;;;;;;7.43;4.50;;;;;;;;;;4941630;28;20043;-83
2021/04/18 10:53:00;;;;;;;7.00;4.43;;;;;;;;;;4957341;28;20045;-83
2021/04/18 10:55:26;;;;;;;5.63;4.15;;;;;;;;;;4957614;28;20402;-84
2021/04/18 10:57:52;;;;;;;7.65;4.60;;;;;;;;;;4974639;28;20039;-83
2021/04/18 11:00:19;;;;;;;8.00;4.38;;;;;;;;;;4957636;28;20035;-81
2021/04/18 11:02:45;;;;;;;5.88;4.25;;;;;;;;;;4940620;28;20490;-83
2021/04/18 11:05:11;;;;;;;6.22;4.40;;;;;;;;;;4963621;28;20046;-85
2021/04/18 11:07:37;;;;;;;7.32;4.25;;;;;;;;;;4941449;28;20493;-85
2021/04/18 11:10:04;;;;;;;6.90;4.30;;;;;;;;;;4941540;28;20050;-86
2021/04/18 11:12:30;;;;;;;6.35;3.70;;;;;;;;;;4957333;28;20393;-83
2021/04/18 11:14:56;;;;;;;9.38;4.30;;;;;;;;;;4957308;28;20494;-82
2021/04/18 11:17:23;;;;;;;7.85;4.07;;;;;;;;;;4957112;28;20043;-83
2021/04/18 11:19:50;;;;;;;6.15;4.35;;;;;;;;;;4956799;28;20121;-83
2021/04/18 11:22:16;;;;;;;5.97;3.72;;;;;;;;;;4956259;28;20413;-83
2021/04/18 11:24:42;;;;;;;8.05;4.45;;;;;;;;;;4956419;28;20125;-84
2021/04/18 11:27:08;;;;;;;7.18;4.45;;;;;;;;;;4957037;28;20042;-84
2021/04/18 11:29:35;;;;;;;4.75;3.60;;;;;;;;;;4962677;28;20055;-86
2021/04/18 11:32:01;;;;;;;6.68;4.50;;;;;;;;;;4973284;28;20038;-83
2021/04/18 11:34:27;;;;;;;6.28;4.15;;;;;;;;;;4956889;28;20046;-84
2021/04/18 11:36:53;;;;;;;4.75;4.20;;;;;;;;;;4972654;28;20561;-84
2021/04/18 11:39:19;;;;;;;7.40;3.90;;;;;;;;;;4956146;28;20039;-84
2021/04/18 11:41:45;;;;;;;7.35;4.30;;;;;;;;;;4972744;28;20042;-84
2021/04/18 11:44:14;;;;;;;6.45;3.92;;;;;;;;;;4956919;28;20390;-84
2021/04/18 11:46:40;;;;;;;8.20;4.38;;;;;;;;;;4957219;28;20047;-85
2021/04/18 11:49:06;;;;;;;6.15;4.50;;;;;;;;;;4972933;28;20110;-87
2021/04/18 11:51:32;;;;;;;7.47;4.43;;;;;;;;;;4956691;28;20143;-84
2021/04/18 11:53:58;;;;;;;7.55;4.50;;;;;;;;;;4972575;28;20392;-84
2021/04/18 11:56:24;;;;;;;7.60;4.30;;;;;;;;;;4956464;28;20046;-84
2021/04/18 11:58:50;;;;;;;7.18;4.25;;;;;;;;;;4972717;28;20105;-84
2021/04/18 12:01:16;;;;;;;7.75;4.85;;;;;;;;;;4972596;28;20042;-84
2021/04/18 12:03:42;;;;;;;6.95;4.30;;;;;;;;;;4972738;28;20458;-84
2021/04/18 12:06:09;;;;;;;8.32;4.32;;;;;;;;;;4972386;28;20089;-86
2021/04/18 12:08:35;;;;;;;8.23;4.18;;;;;;;;;;4949133;28;20467;-85
2021/04/18 12:11:01;;;;;;;7.60;4.65;;;;;;;;;;4955317;28;20035;-84
2021/04/18 12:13:28;;;;;;;7.10;4.65;;;;;;;;;;4966792;28;20039;-82
2021/04/18 12:15:54;;;;;;;7.30;4.20;;;;;;;;;;4950905;28;20039;-85
2021/04/18 12:18:21;;;;;;;5.03;4.00;;;;;;;;;;4971389;28;20042;-83
2021/04/18 12:20:47;;;;;;;7.90;4.25;;;;;;;;;;4962233;28;20063;-84
2021/04/18 12:23:13;;;;;;;11.70;3.85;;;;;;;;;;4952815;28;20395;-84
2021/04/18 12:25:39;;;;;;;5.40;3.80;;;;;;;;;;4968781;28;20102;-85
2021/04/18 12:28:07;;;;;;;7.90;3.78;;;;;;;;;;4957672;28;20638;-83
2021/04/18 12:30:33;;;;;;;5.38;3.70;;;;;;;;;;4959120;28;20608;-83
2021/04/18 12:32:59;;;;;;;7.80;4.10;;;;;;;;;;4954079;29;20063;-83
2021/04/18 12:35:25;;;;;;;6.20;3.55;;;;;;;;;;4978035;28;20054;-82
2021/04/18 12:37:52;;;;;;;6.43;3.50;;;;;;;;;;4953777;29;20159;-82
2021/04/18 12:40:18;;;;;;;6.47;3.75;;;;;;;;;;4953003;28;20122;-82
2021/04/18 12:42:44;;;;;;;7.07;3.30;;;;;;;;;;4965742;28;20038;-82
2021/04/18 12:45:10;;;;;;;3.28;2.88;;;;;;;;;;4968623;28;20077;-82
2021/04/18 12:47:37;;;;;;;4.47;2.90;;;;;;;;;;4955947;28;20042;-83
2021/04/18 12:50:04;;;;;;;6.20;3.10;;;;;;;;;;4971929;28;20101;-82
2021/04/18 12:52:30;;;;;;;3.70;2.78;;;;;;;;;;4965581;28;20118;-82
2021/04/18 12:54:56;;;;;;;6.95;3.00;;;;;;;;;;4960078;28;20154;-82
2021/04/18 12:57:22;;;;;;;3.70;2.65;;;;;;;;;;4962652;28;20031;-82
2021/04/18 12:59:53;;;;;;;6.32;3.08;;;;;;;;;;4957768;29;20046;-86
2021/04/18 13:02:21;;;;;;;6.97;3.78;;;;;;;;;;4956464;29;20039;-82
2021/04/18 13:04:47;;;;;;;7.38;4.40;;;;;;;;;;4944424;28;20150;-82
2021/04/18 13:07:16;;;;;;;6.65;3.33;;;;;;;;;;4940499;29;20063;-81
2021/04/18 13:09:42;;;;;;;7.90;3.13;;;;;;;;;;4957429;28;20039;-82
2021/04/18 13:12:08;;;;;;;3.88;3.38;;;;;;;;;;4957443;29;20110;-83
2021/04/18 13:14:34;;;;;;;6.38;3.63;;;;;;;;;;4941822;28;20047;-83
2021/04/18 13:17:00;;;;;;;7.10;3.40;;;;;;;;;;4975648;28;20042;-84
2021/04/18 13:19:26;;;;;;;4.32;3.47;;;;;;;;;;4975274;28;20038;-83
2021/04/18 13:21:52;;;;;;;6.57;3.90;;;;;;;;;;4963901;28;20113;-83
2021/04/18 13:24:19;;;;;;;5.03;3.35;;;;;;;;;;4964430;28;20042;-85
2021/04/18 13:26:44;;;;;;;6.07;4.10;;;;;;;;;;4972028;28;20138;-86
2021/04/18 13:29:11;;;;;;;10.90;3.83;;;;;;;;;;4971801;28;20112;-83
2021/04/18 13:31:37;;;;;;;7.18;3.78;;;;;;;;;;4975181;28;20050;-83
2021/04/18 13:34:03;;;;;;;8.35;3.85;;;;;;;;;;4962630;28;20114;-84
2021/04/18 13:36:29;;;;;;;6.65;4.03;;;;;;;;;;4963632;28;20448;-84
2021/04/18 13:38:55;;;;;;;5.90;3.67;;;;;;;;;;4967590;28;20126;-84
2021/04/18 13:41:21;;;;;;;4.90;3.55;;;;;;;;;;4955839;29;20118;-84
2021/04/18 13:43:47;;;;;;;5.35;3.60;;;;;;;;;;4960640;28;20038;-83
2021/04/18 13:46:13;;;;;;;6.53;3.85;;;;;;;;;;4966622;28;20446;-84
2021/04/18 13:48:39;;;;;;;7.15;3.92;;;;;;;;;;4961031;28;20085;-85
2021/04/18 13:51:05;;;;;;;6.20;3.72;;;;;;;;;;4955612;29;20732;-82
2021/04/18 13:53:31;;;;;;;7.75;3.60;;;;;;;;;;4954722;28;20043;-82
2021/04/18 13:55:58;;;;;;;9.70;4.55;;;;;;;;;;4960544;28;20065;-81
2021/04/18 13:58:24;;;;;;;8.10;4.03;;;;;;;;;;4958760;28;20043;-81
2021/04/18 14:00:50;;;;;;;6.60;3.70;;;;;;;;;;4965988;28;20045;-82
2021/04/18 14:03:17;;;;;;;6.50;3.35;;;;;;;;;;4955689;28;20040;-83
2021/04/18 14:05:43;;;;;;;7.60;3.63;;;;;;;;;;4962404;28;20058;-82
2021/04/18 14:08:09;;;;;;;7.55;3.47;;;;;;;;;;4972486;28;20045;-81
2021/04/18 14:10:35;;;;;;;8.15;3.55;;;;;;;;;;4956437;29;20099;-84
2021/04/18 14:13:01;;;;;;;5.45;3.63;;;;;;;;;;4968961;28;20057;-83
2021/04/18 14:15:28;;;;;;;10.00;3.47;;;;;;;;;;4971785;28;20113;-81
2021/04/18 14:17:54;;;;;;;4.43;3.30;;;;;;;;;;4956101;28;20356;-82
2021/04/18 14:20:20;;;;;;;6.60;3.70;;;;;;;;;;4963394;28;20035;-82
2021/04/18 14:22:46;;;;;;;5.22;3.30;;;;;;;;;;4974355;28;20043;-82
2021/04/18 14:25:13;;;;;;;7.97;3.63;;;;;;;;;;4973536;28;20486;-84
2021/04/18 14:27:39;;;;;;;5.25;3.10;;;;;;;;;;4954754;28;20031;-81
2021/04/18 14:30:05;;;;;;;6.13;3.53;;;;;;;;;;4955667;29;20130;-83
2021/04/18 14:32:31;;;;;;;5.75;3.22;;;;;;;;;;4955799;29;20070;-82
2021/04/18 14:34:57;;;;;;;6.32;3.60;;;;;;;;;;4953482;28;20047;-81
2021/04/18 14:37:25;;;;;;;9.20;4.03;;;;;;;;;;4960219;28;20510;-82